createdAt,value
2022-10-14T00:01:51.236Z,25.44
2022-10-14T00:04:18.819Z,25.45
2022-10-14T00:06:46.477Z,25.40
2022-10-14T00:09:15.142Z,25.38
2022-10-14T00:11:43.888Z,25.48
2022-10-14T00:14:17.641Z,25.45
2022-10-14T00:16:47.650Z,25.41
2022-10-14T00:19:18.547Z,25.43
2022-10-14T00:21:46.953Z,25.38
2022-10-14T00:24:18.786Z,25.34
2022-10-14T00:26:52.899Z,25.35
2022-10-14T00:29:23.184Z,25.32
2022-10-14T00:31:51.931Z,25.33
2022-10-14T00:34:20.494Z,25.32
2022-10-14T00:36:48.336Z,25.30
2022-10-14T00:39:19.694Z,25.27
2022-10-14T00:41:49.942Z,25.30
2022-10-14T00:44:20.719Z,25.27
2022-10-14T00:46:51.120Z,25.29
2022-10-14T00:49:25.140Z,25.31
2022-10-14T00:51:58.481Z,25.37
2022-10-14T00:54:40.005Z,25.52
2022-10-14T00:57:12.761Z,25.49
2022-10-14T00:59:46.314Z,25.51
2022-10-14T01:02:16.555Z,25.43
2022-10-14T01:04:48.773Z,25.43
2022-10-14T01:07:22.571Z,25.37
2022-10-14T01:09:59.155Z,25.43
2022-10-14T01:12:35.899Z,25.49
2022-10-14T01:15:07.610Z,25.58
2022-10-14T01:18:15.329Z,25.55
2022-10-14T01:21:07.177Z,25.57
2022-10-14T01:23:46.561Z,25.60
2022-10-14T01:26:59.300Z,25.63
2022-10-14T01:29:41.725Z,25.72
2022-10-14T01:32:32.834Z,25.68
2022-10-14T01:35:09.806Z,25.76
2022-10-14T01:37:45.185Z,25.67
2022-10-14T01:40:24.057Z,25.67
2022-10-14T01:42:56.437Z,25.64
2022-10-14T01:45:28.875Z,25.61
2022-10-14T01:47:58.648Z,25.57
2022-10-14T01:50:31.737Z,25.57
2022-10-14T01:53:05.229Z,25.58
2022-10-14T01:55:39.435Z,25.60
2022-10-14T01:58:11.724Z,25.62
2022-10-14T02:00:44.692Z,25.65
2022-10-14T02:03:13.448Z,25.60
2022-10-14T02:05:53.822Z,25.63
2022-10-14T02:08:32.601Z,25.52
2022-10-14T02:11:16.953Z,25.46
2022-10-14T02:13:56.441Z,25.40
2022-10-14T02:16:23.975Z,25.43
2022-10-14T02:19:00.541Z,25.44
2022-10-14T02:21:58.589Z,25.44
2022-10-14T02:24:39.590Z,25.41
2022-10-14T02:27:14.457Z,25.38
2022-10-14T02:29:45.598Z,25.34
2022-10-14T02:32:16.561Z,25.25
2022-10-14T02:34:49.631Z,25.29
2022-10-14T02:37:19.105Z,25.21
2022-10-14T02:40:02.654Z,25.21
2022-10-14T02:42:33.250Z,25.25
2022-10-14T02:45:03.885Z,25.26
2022-10-14T02:47:38.219Z,25.19
2022-10-14T02:50:09.437Z,25.16
2022-10-14T02:52:37.881Z,25.19
2022-10-14T02:55:10.579Z,25.21
2022-10-14T02:57:42.186Z,25.18
2022-10-14T03:00:14.118Z,25.20
2022-10-14T03:02:43.182Z,25.12
2022-10-14T03:05:18.638Z,25.08
2022-10-14T03:07:51.910Z,25.13
2022-10-14T03:10:23.965Z,25.04
2022-10-14T03:12:51.775Z,25.05
2022-10-14T03:15:35.230Z,25.01
2022-10-14T03:18:07.801Z,25.04
2022-10-14T03:20:47.845Z,25.01
2022-10-14T03:23:27.921Z,25.04
2022-10-14T03:25:59.156Z,25.04
2022-10-14T03:28:34.395Z,25.08
2022-10-14T03:31:16.170Z,25.05
2022-10-14T03:34:06.903Z,25.05
2022-10-14T03:36:39.161Z,25.04
2022-10-14T03:39:13.907Z,25.00
2022-10-14T03:41:47.151Z,24.96
2022-10-14T03:44:19.106Z,25.03
2022-10-14T03:47:08.724Z,25.01
2022-10-14T03:49:40.988Z,25.00
2022-10-14T03:52:22.309Z,25.06
2022-10-14T03:55:03.168Z,25.01
2022-10-14T03:57:34.464Z,25.05
2022-10-14T04:00:05.090Z,24.99
2022-10-14T04:02:42.125Z,24.94
2022-10-14T04:05:35.520Z,24.98
2022-10-14T04:08:10.063Z,24.93
2022-10-14T04:10:41.102Z,24.95
2022-10-14T04:13:14.454Z,24.94
2022-10-14T04:15:45.019Z,24.94
2022-10-14T04:18:41.289Z,24.94
2022-10-14T04:21:12.558Z,24.98
2022-10-14T04:23:42.608Z,25.03
2022-10-14T04:26:18.293Z,25.01
2022-10-14T04:28:49.136Z,24.92
2022-10-14T04:31:31.157Z,24.94
2022-10-14T04:34:02.363Z,24.97
2022-10-14T04:36:42.021Z,24.95
2022-10-14T04:39:28.438Z,24.95
2022-10-14T04:41:59.488Z,24.91
2022-10-14T04:44:29.616Z,24.94
2022-10-14T04:46:59.800Z,24.96
2022-10-14T04:49:28.502Z,24.90
2022-10-14T04:52:10.421Z,24.91
2022-10-14T04:54:47.306Z,24.89
2022-10-14T04:57:20.462Z,24.85
2022-10-14T04:59:52.302Z,24.89
2022-10-14T05:02:41.809Z,24.87
2022-10-14T05:05:14.864Z,24.81
2022-10-14T05:07:44.295Z,24.81
2022-10-14T05:10:23.163Z,24.88
2022-10-14T05:12:50.991Z,24.83
2022-10-14T05:15:20.023Z,24.83
2022-10-14T05:18:02.461Z,24.85
2022-10-14T05:20:47.262Z,24.82
2022-10-14T05:23:18.333Z,24.84
2022-10-14T05:25:46.572Z,24.83
2022-10-14T05:28:18.259Z,24.81
2022-10-14T05:30:52.308Z,24.82
2022-10-14T05:33:26.522Z,24.78
2022-10-14T05:35:59.387Z,24.78
2022-10-14T05:38:38.831Z,24.79
2022-10-14T05:41:16.429Z,24.81
2022-10-14T05:43:46.774Z,24.77
2022-10-14T05:46:20.580Z,24.70
2022-10-14T05:49:01.913Z,24.77
2022-10-14T05:51:32.681Z,24.77
2022-10-14T05:54:12.501Z,24.85
2022-10-14T05:56:44.326Z,24.91
2022-10-14T05:59:15.144Z,24.93
2022-10-14T06:01:43.763Z,24.95
2022-10-14T06:04:21.014Z,25.00
2022-10-14T06:06:49.856Z,25.07
2022-10-14T06:09:20.814Z,25.09
2022-10-14T06:11:48.343Z,25.11
2022-10-14T06:14:18.487Z,25.23
2022-10-14T06:16:55.927Z,25.16
2022-10-14T06:19:28.102Z,25.30
2022-10-14T06:21:55.942Z,25.25
2022-10-14T06:24:28.468Z,25.36
2022-10-14T06:26:55.754Z,25.53
2022-10-14T06:29:31.720Z,25.78
2022-10-14T06:32:10.564Z,26.33
2022-10-14T06:34:39.181Z,26.70
2022-10-14T06:37:09.612Z,26.75
2022-10-14T06:39:37.244Z,26.83
2022-10-14T06:42:13.057Z,26.75
2022-10-14T06:44:46.158Z,26.81
2022-10-14T06:47:13.576Z,26.85
2022-10-14T06:49:41.232Z,26.76
2022-10-14T06:52:09.012Z,26.84
2022-10-14T06:54:47.334Z,26.99
2022-10-14T06:57:19.310Z,26.87
2022-10-14T06:59:52.992Z,26.71
2022-10-14T07:02:26.449Z,26.73
2022-10-14T07:04:54.623Z,26.54
2022-10-14T07:07:27.619Z,26.59
2022-10-14T07:09:58.915Z,26.30
2022-10-14T07:12:34.146Z,26.44
2022-10-14T07:15:05.099Z,26.50
2022-10-14T07:17:40.682Z,26.57
2022-10-14T07:20:17.337Z,26.36
2022-10-14T07:22:47.471Z,26.30
2022-10-14T07:25:18.695Z,26.65
2022-10-14T07:27:46.713Z,26.58
2022-10-14T07:30:17.377Z,26.81
2022-10-14T07:32:47.697Z,26.65
2022-10-14T07:35:21.194Z,26.53
2022-10-14T07:37:52.180Z,26.47
2022-10-14T07:40:23.354Z,26.57
2022-10-14T07:42:57.533Z,26.64
2022-10-14T07:45:35.445Z,26.38
2022-10-14T07:48:08.678Z,26.52
2022-10-14T07:50:39.359Z,26.69
2022-10-14T07:53:08.092Z,26.97
2022-10-14T07:55:44.550Z,27.11
2022-10-14T07:58:12.256Z,27.37
2022-10-14T08:00:47.245Z,27.18
2022-10-14T08:03:16.312Z,26.85
2022-10-14T08:05:55.413Z,26.50
2022-10-14T08:08:28.795Z,26.38
2022-10-14T08:11:05.566Z,26.59
2022-10-14T08:13:33.861Z,26.67
2022-10-14T08:16:04.692Z,26.89
2022-10-14T08:18:32.429Z,26.93
2022-10-14T08:21:02.754Z,26.96
2022-10-14T08:23:33.245Z,26.95
2022-10-14T08:26:00.977Z,26.80
2022-10-14T08:28:34.310Z,26.64
2022-10-14T08:31:05.608Z,26.51
2022-10-14T08:33:38.667Z,26.45
2022-10-14T08:36:09.446Z,26.31
2022-10-14T08:38:42.101Z,26.34
2022-10-14T08:41:15.411Z,26.30
2022-10-14T08:43:51.742Z,26.24
2022-10-14T08:46:41.828Z,26.03
2022-10-14T08:50:02.513Z,25.94
2022-10-14T08:52:37.810Z,26.01
2022-10-14T08:55:23.117Z,26.15
2022-10-14T08:58:29.942Z,26.26
2022-10-14T09:01:11.199Z,26.22
2022-10-14T09:03:55.399Z,26.34
2022-10-14T09:06:30.539Z,26.36
2022-10-14T09:09:37.385Z,26.31
2022-10-14T09:12:15.243Z,26.27
2022-10-14T09:14:48.431Z,26.25
2022-10-14T09:17:20.657Z,26.33
2022-10-14T09:20:14.814Z,26.33
2022-10-14T09:22:46.553Z,26.40
2022-10-14T09:25:18.424Z,26.36
2022-10-14T09:27:51.312Z,26.25
2022-10-14T09:30:24.995Z,26.57
2022-10-14T09:32:56.693Z,26.44
2022-10-14T09:35:34.416Z,26.62
2022-10-14T09:38:08.272Z,26.65
2022-10-14T09:40:43.738Z,26.63
2022-10-14T09:43:11.849Z,26.82
2022-10-14T09:46:00.461Z,26.80
2022-10-14T09:48:43.788Z,26.79
2022-10-14T09:51:28.595Z,27.06
2022-10-14T09:54:04.853Z,26.91
2022-10-14T09:56:41.742Z,26.92
2022-10-14T09:59:19.700Z,27.09
2022-10-14T10:02:02.809Z,27.15
2022-10-14T10:04:40.577Z,26.72
2022-10-14T10:07:29.693Z,26.79
2022-10-14T10:10:06.203Z,26.78
2022-10-14T10:12:37.908Z,26.73
2022-10-14T10:15:22.179Z,26.82
2022-10-14T10:17:53.841Z,26.86
2022-10-14T10:20:33.332Z,26.79
2022-10-14T10:23:31.261Z,26.75
2022-10-14T10:26:21.053Z,26.67
2022-10-14T10:28:50.269Z,26.76
2022-10-14T10:34:32.662Z,26.62
2022-10-14T10:37:28.180Z,26.53
2022-10-14T10:40:33.204Z,26.23
2022-10-14T10:43:22.050Z,26.11
2022-10-14T10:46:12.376Z,26.12
2022-10-14T10:49:15.277Z,26.13
2022-10-14T10:52:08.790Z,26.11
2022-10-14T10:54:59.818Z,26.13
2022-10-14T10:57:36.246Z,26.03
2022-10-14T11:00:21.357Z,26.04
2022-10-14T11:03:11.422Z,25.95
2022-10-14T11:06:08.031Z,25.91
2022-10-14T11:09:23.949Z,25.90
2022-10-14T11:12:16.211Z,25.87
2022-10-14T11:15:08.588Z,25.87
2022-10-14T11:18:00.298Z,25.81
2022-10-14T11:20:44.882Z,25.85
2022-10-14T11:23:49.662Z,25.81
2022-10-14T11:26:50.423Z,25.81
2022-10-14T11:29:38.879Z,25.79
2022-10-14T11:33:03.625Z,25.79
2022-10-14T11:36:01.384Z,25.77
2022-10-14T11:38:48.517Z,25.72
2022-10-14T11:41:27.963Z,25.66
2022-10-14T11:44:33.395Z,25.69
2022-10-14T11:47:29.147Z,25.68
2022-10-14T11:50:26.601Z,25.60
2022-10-14T11:53:17.451Z,25.65
2022-10-14T11:55:56.364Z,25.62
2022-10-14T11:58:33.525Z,25.56
2022-10-14T12:01:09.577Z,25.66
2022-10-14T12:04:01.122Z,25.65
2022-10-14T12:06:44.109Z,25.61
2022-10-14T12:09:16.822Z,25.60
2022-10-14T12:11:59.948Z,25.57
2022-10-14T12:14:43.482Z,25.57
2022-10-14T12:17:43.970Z,25.55
2022-10-14T12:20:38.826Z,25.51
2022-10-14T12:23:13.303Z,25.51
2022-10-14T12:26:03.769Z,25.52
2022-10-14T12:28:43.882Z,25.56
2022-10-14T12:31:40.885Z,25.48
2022-10-14T12:34:11.603Z,25.50
2022-10-14T12:36:47.155Z,25.48
2022-10-14T12:39:17.775Z,25.52
2022-10-14T12:42:14.468Z,25.54
2022-10-14T12:44:56.231Z,25.55
2022-10-14T12:47:32.274Z,25.49
2022-10-14T12:50:17.907Z,25.54
2022-10-14T12:52:58.130Z,25.51
2022-10-14T12:55:52.287Z,25.57
2022-10-14T12:58:47.567Z,25.63
2022-10-14T13:01:20.275Z,25.61
2022-10-14T13:04:07.253Z,25.60
2022-10-14T13:06:39.432Z,25.59
2022-10-14T13:09:22.415Z,25.59
2022-10-14T13:11:55.660Z,25.61
2022-10-14T13:14:52.891Z,25.60
2022-10-14T13:17:42.592Z,25.60
2022-10-14T13:20:35.681Z,25.56
2022-10-14T13:23:31.164Z,25.49
2022-10-14T13:26:58.389Z,25.51
2022-10-14T13:29:32.031Z,25.51
2022-10-14T13:32:31.304Z,25.52
2022-10-14T13:35:00.038Z,25.54
2022-10-14T13:37:41.940Z,25.52
2022-10-14T13:40:31.751Z,25.52
2022-10-14T13:43:09.675Z,25.57
2022-10-14T13:45:58.280Z,25.47
2022-10-14T13:48:37.245Z,25.51
2022-10-14T13:51:36.446Z,25.51
2022-10-14T13:54:24.831Z,25.55
2022-10-14T13:57:59.966Z,25.57
2022-10-14T14:00:41.243Z,25.66
2022-10-14T14:03:29.257Z,25.66
2022-10-14T14:06:01.538Z,25.56
2022-10-14T14:08:40.799Z,25.57
2022-10-14T14:11:36.742Z,25.63
2022-10-14T14:14:27.704Z,25.60
2022-10-14T14:17:00.533Z,25.62
2022-10-14T14:19:31.168Z,25.64
2022-10-14T14:22:35.232Z,25.62
2022-10-14T14:25:38.347Z,25.66
2022-10-14T14:28:18.762Z,25.62
2022-10-14T14:30:55.475Z,25.58
2022-10-14T14:33:32.789Z,25.55
2022-10-14T14:36:14.691Z,25.60
2022-10-14T14:38:57.836Z,25.57
2022-10-14T14:41:31.391Z,25.51
2022-10-14T14:44:25.348Z,25.54
2022-10-14T14:47:03.918Z,25.66
2022-10-14T14:49:41.067Z,25.65
2022-10-14T14:52:14.840Z,25.65
2022-10-14T14:54:52.838Z,25.69
2022-10-14T14:57:22.715Z,25.69
2022-10-14T15:00:09.874Z,25.65
2022-10-14T15:02:41.182Z,25.69
2022-10-14T15:05:15.103Z,25.65
2022-10-14T15:07:49.971Z,25.60
2022-10-14T15:10:24.599Z,25.60
2022-10-14T15:12:55.248Z,25.64
2022-10-14T15:15:40.200Z,25.65
2022-10-14T15:18:24.492Z,25.72
2022-10-14T15:21:20.739Z,25.82
2022-10-14T15:23:54.066Z,26.02
2022-10-14T15:26:30.377Z,26.10
2022-10-14T15:29:18.947Z,26.14
2022-10-14T15:32:06.745Z,26.34
2022-10-14T15:34:40.842Z,26.53
2022-10-14T15:37:16.566Z,26.31
2022-10-14T15:40:05.548Z,26.17
2022-10-14T15:42:37.437Z,26.27
2022-10-14T15:45:14.596Z,26.09
2022-10-14T15:50:28.947Z,26.07
2022-10-14T15:52:59.540Z,26.08
2022-10-14T15:55:36.046Z,26.03
2022-10-14T15:58:10.164Z,26.02
2022-10-14T16:00:39.462Z,25.97
2022-10-14T16:03:11.310Z,25.91
2022-10-14T16:05:43.285Z,25.94
2022-10-14T16:08:19.342Z,25.93
2022-10-14T16:10:48.594Z,25.88
2022-10-14T16:13:16.586Z,25.86
2022-10-14T16:16:11.780Z,25.83
2022-10-14T16:18:48.353Z,25.81
2022-10-14T16:21:17.334Z,25.79
2022-10-14T16:24:01.639Z,25.77
2022-10-14T16:26:38.529Z,25.80
2022-10-14T16:29:18.199Z,25.74
2022-10-14T16:31:52.661Z,25.70
2022-10-14T16:34:27.628Z,25.70
2022-10-14T16:37:07.333Z,25.74
2022-10-14T16:39:39.098Z,25.67
2022-10-14T16:42:08.291Z,25.67
2022-10-14T16:44:45.760Z,25.62
2022-10-14T16:47:17.225Z,25.57
2022-10-14T16:49:51.559Z,25.65
2022-10-14T16:52:29.185Z,25.55
2022-10-14T16:55:01.550Z,25.60
2022-10-14T16:57:35.798Z,25.60
2022-10-14T17:00:09.835Z,25.62
2022-10-14T17:02:40.358Z,25.62
2022-10-14T17:05:14.154Z,25.58
2022-10-14T17:07:46.801Z,25.59
2022-10-14T17:10:22.550Z,25.55
2022-10-14T17:12:50.008Z,25.53
2022-10-14T17:15:17.602Z,25.58
2022-10-14T17:17:53.674Z,25.59
2022-10-14T17:20:27.412Z,25.58
2022-10-14T17:23:09.503Z,25.56
2022-10-14T17:25:40.928Z,25.56
2022-10-14T17:28:13.197Z,25.53
2022-10-14T17:30:44.132Z,25.51
2022-10-14T17:33:12.237Z,25.48
2022-10-14T17:35:48.206Z,25.49
2022-10-14T17:38:18.297Z,25.49
2022-10-14T17:40:51.142Z,25.48
2022-10-14T17:43:20.485Z,25.46
2022-10-14T17:45:52.962Z,25.45
2022-10-14T17:48:21.432Z,25.45
2022-10-14T17:50:51.820Z,25.46
2022-10-14T17:53:28.180Z,25.45
2022-10-14T17:56:07.405Z,25.40
2022-10-14T17:58:40.963Z,25.41
2022-10-14T18:01:14.250Z,25.40
2022-10-14T18:03:47.935Z,25.42
2022-10-14T18:06:22.647Z,25.40
2022-10-14T18:08:55.507Z,25.36
2022-10-14T18:11:24.705Z,25.29
2022-10-14T18:13:58.051Z,25.34
2022-10-14T18:16:35.837Z,25.32
2022-10-14T18:19:16.900Z,25.30
2022-10-14T18:21:48.215Z,25.29
2022-10-14T18:24:18.485Z,25.30
2022-10-14T18:26:51.976Z,25.30
2022-10-14T18:29:23.501Z,25.30
2022-10-14T18:31:56.989Z,25.31
2022-10-14T18:34:27.812Z,25.33
2022-10-14T18:37:02.890Z,25.33
2022-10-14T18:39:33.390Z,25.31
2022-10-14T18:42:06.481Z,25.32
2022-10-14T18:44:34.463Z,25.31
2022-10-14T18:47:09.890Z,25.32
2022-10-14T18:49:43.121Z,25.34
2022-10-14T18:52:18.927Z,25.36
2022-10-14T18:54:50.826Z,25.38
2022-10-14T18:57:24.770Z,25.38
2022-10-14T18:59:52.450Z,25.36
2022-10-14T19:02:24.477Z,25.41
2022-10-14T19:04:53.552Z,25.38
2022-10-14T19:07:26.991Z,25.36
2022-10-14T19:09:57.959Z,25.34
2022-10-14T19:12:43.737Z,25.35
2022-10-14T19:15:14.431Z,25.37
2022-10-14T19:17:52.245Z,25.37
2022-10-14T19:20:25.515Z,25.36
2022-10-14T19:22:56.787Z,25.36
2022-10-14T19:25:25.537Z,25.35
2022-10-14T19:27:54.101Z,25.35
2022-10-14T19:30:25.473Z,25.37
2022-10-14T19:32:58.686Z,25.37
2022-10-14T19:35:31.935Z,25.33
2022-10-14T19:37:59.788Z,25.35
2022-10-14T19:40:29.633Z,25.33
2022-10-14T19:42:59.938Z,25.31
2022-10-14T19:45:30.554Z,25.34
2022-10-14T19:48:00.897Z,25.32
2022-10-14T19:50:32.353Z,25.34
2022-10-14T19:53:00.021Z,25.31
2022-10-14T19:55:28.687Z,25.28
2022-10-14T19:58:01.397Z,25.27
2022-10-14T20:00:31.873Z,25.27
2022-10-14T20:03:02.241Z,25.28
2022-10-14T20:05:32.220Z,25.30
2022-10-14T20:08:02.717Z,25.27
2022-10-14T20:10:30.234Z,25.27
2022-10-14T20:13:02.618Z,25.21
2022-10-14T20:15:32.779Z,25.24
2022-10-14T20:18:06.297Z,25.21
2022-10-14T20:20:33.970Z,25.24
2022-10-14T20:23:05.820Z,25.28
2022-10-14T20:25:41.849Z,25.28
2022-10-14T20:28:24.343Z,25.25
2022-10-14T20:30:57.849Z,25.25
2022-10-14T20:33:25.598Z,25.28
2022-10-14T20:36:03.518Z,25.26
2022-10-14T20:38:33.647Z,25.26
2022-10-14T20:41:21.274Z,25.29
2022-10-14T20:43:56.463Z,25.31
2022-10-14T20:46:28.501Z,25.29
2022-10-14T20:48:59.103Z,25.29
2022-10-14T20:51:27.154Z,25.36
2022-10-14T20:54:03.082Z,25.34
2022-10-14T20:56:35.697Z,25.32
2022-10-14T20:59:12.279Z,25.33
2022-10-14T21:01:40.217Z,25.33
2022-10-14T21:04:11.088Z,25.36
2022-10-14T21:06:42.543Z,25.32
2022-10-14T21:09:13.095Z,25.30
2022-10-14T21:11:41.677Z,25.29
2022-10-14T21:14:12.239Z,25.30
2022-10-14T21:16:42.315Z,25.30
2022-10-14T21:19:10.995Z,25.31
2022-10-14T21:21:43.052Z,25.30
2022-10-14T21:24:18.742Z,25.28
2022-10-14T21:26:50.654Z,25.29
2022-10-14T21:29:23.080Z,25.27
2022-10-14T21:31:52.960Z,25.28
2022-10-14T21:34:24.910Z,25.28
2022-10-14T21:37:00.616Z,25.26
2022-10-14T21:39:28.533Z,25.27
2022-10-14T21:42:04.282Z,25.27
2022-10-14T21:44:34.577Z,25.28
2022-10-14T21:47:04.765Z,25.26
2022-10-14T21:49:35.196Z,25.25
2022-10-14T21:52:04.051Z,25.28
2022-10-14T21:54:37.144Z,25.25
2022-10-14T21:57:07.515Z,25.22
2022-10-14T21:59:40.069Z,25.22
2022-10-14T22:02:12.956Z,25.23
2022-10-14T22:04:46.466Z,25.24
2022-10-14T22:07:18.081Z,25.23
2022-10-14T22:09:48.411Z,25.23
2022-10-14T22:12:21.195Z,25.22
2022-10-14T22:14:49.949Z,25.16
2022-10-14T22:17:28.866Z,25.15
2022-10-14T22:20:01.168Z,25.11
2022-10-14T22:22:28.869Z,25.16
2022-10-14T22:24:58.751Z,25.16
2022-10-14T22:27:31.870Z,25.15
2022-10-14T22:30:04.908Z,25.13
2022-10-14T22:32:39.255Z,25.14
2022-10-14T22:35:13.502Z,25.14
2022-10-14T22:37:46.675Z,25.12
2022-10-14T22:40:18.053Z,25.17
2022-10-14T22:42:51.357Z,25.20
2022-10-14T22:45:22.046Z,25.24
2022-10-14T22:47:54.313Z,25.21
2022-10-14T22:50:22.114Z,25.20
2022-10-14T22:52:53.722Z,25.14
2022-10-14T22:55:27.114Z,25.13
2022-10-14T22:57:54.986Z,25.12
2022-10-14T23:00:22.715Z,25.08
2022-10-14T23:02:53.661Z,25.11
2022-10-14T23:05:21.317Z,25.09
2022-10-14T23:07:54.758Z,25.09
2022-10-14T23:10:26.703Z,25.06
2022-10-14T23:12:56.477Z,25.05
2022-10-14T23:15:24.753Z,25.08
2022-10-14T23:17:56.981Z,25.06
2022-10-14T23:20:30.102Z,25.06
2022-10-14T23:23:00.436Z,25.06
2022-10-14T23:25:28.687Z,25.10
2022-10-14T23:27:59.073Z,25.09
2022-10-14T23:30:26.981Z,25.06
2022-10-14T23:32:54.669Z,25.06
2022-10-14T23:35:25.385Z,25.09
2022-10-14T23:37:59.165Z,25.11
2022-10-14T23:40:32.370Z,25.08
2022-10-14T23:43:01.768Z,25.09
2022-10-14T23:45:34.425Z,25.11
2022-10-14T23:48:08.137Z,25.05
2022-10-14T23:50:44.533Z,25.06
2022-10-14T23:53:15.530Z,25.08
2022-10-14T23:55:45.832Z,25.06
2022-10-14T23:58:17.840Z,25.06
